createdAt,value
2022-12-13T00:01:50.356Z,18.17
2022-12-13T00:04:20.395Z,15.68
2022-12-13T00:06:48.901Z,17.63
2022-12-13T00:09:18.283Z,15.38
2022-12-13T00:11:46.191Z,17.40
2022-12-13T00:14:14.340Z,16.10
2022-12-13T00:16:45.678Z,16.98
2022-12-13T00:19:13.194Z,18.92
2022-12-13T00:21:43.011Z,15.50
2022-12-13T00:24:09.964Z,17.90
2022-12-13T00:26:38.641Z,17.13
2022-12-13T00:29:07.352Z,14.02
2022-12-13T00:34:25.292Z,16.00
2022-12-13T00:36:59.230Z,16.77
2022-12-13T00:39:26.657Z,18.55
2022-12-13T00:41:56.375Z,14.75
2022-12-13T00:44:23.620Z,14.98
2022-12-13T00:46:53.940Z,14.07
2022-12-13T00:49:21.241Z,15.73
2022-12-13T00:51:51.957Z,16.60
2022-12-13T00:54:21.545Z,15.20
2022-12-13T00:56:51.260Z,20.30
2022-12-13T00:59:18.315Z,17.85
2022-12-13T01:01:45.719Z,15.68
2022-12-13T01:04:13.587Z,16.70
2022-12-13T01:06:43.677Z,16.73
2022-12-13T01:09:20.671Z,16.88
2022-12-13T01:11:49.127Z,16.17
2022-12-13T01:14:16.824Z,13.90
2022-12-13T01:16:44.135Z,17.23
2022-12-13T01:19:11.416Z,16.48
2022-12-13T01:21:39.086Z,17.23
2022-12-13T01:24:06.947Z,15.90
2022-12-13T01:26:34.656Z,20.90
2022-12-13T01:29:02.080Z,18.73
2022-12-13T01:31:29.349Z,18.98
2022-12-13T01:33:57.108Z,18.67
2022-12-13T01:36:28.151Z,17.65
2022-12-13T01:38:59.389Z,15.20
2022-12-13T01:41:28.864Z,14.82
2022-12-13T01:44:01.441Z,17.65
2022-12-13T01:46:31.489Z,17.83
2022-12-13T01:49:20.454Z,20.92
2022-12-13T01:52:01.127Z,17.58
2022-12-13T01:54:39.651Z,18.80
2022-12-13T01:57:17.952Z,17.17
2022-12-13T01:59:45.989Z,16.55
2022-12-13T02:02:15.023Z,16.50
2022-12-13T02:04:48.707Z,20.33
2022-12-13T02:07:23.091Z,16.92
2022-12-13T02:09:57.157Z,17.02
2022-12-13T02:12:30.764Z,21.48
2022-12-13T02:15:05.293Z,18.13
2022-12-13T02:17:45.340Z,19.05
2022-12-13T02:20:22.507Z,19.27
2022-12-13T02:23:07.229Z,20.52
2022-12-13T02:25:53.267Z,20.23
2022-12-13T02:28:39.191Z,19.85
2022-12-13T02:31:14.994Z,19.70
2022-12-13T02:34:08.611Z,16.00
2022-12-13T02:36:50.012Z,21.40
2022-12-13T02:39:31.139Z,18.17
2022-12-13T02:42:26.937Z,20.13
2022-12-13T02:45:01.362Z,16.55
2022-12-13T02:47:34.176Z,22.75
2022-12-13T02:50:06.293Z,18.77
2022-12-13T02:52:34.753Z,18.63
2022-12-13T02:55:07.284Z,18.85
2022-12-13T02:57:41.084Z,19.95
2022-12-13T03:00:14.505Z,23.20
2022-12-13T03:03:07.265Z,22.02
2022-12-13T03:06:09.100Z,22.08
2022-12-13T03:08:48.670Z,22.58
2022-12-13T03:11:19.611Z,18.73
2022-12-13T03:14:03.375Z,21.02
2022-12-13T03:16:38.077Z,23.92
2022-12-13T03:19:07.834Z,23.13
2022-12-13T03:21:48.597Z,20.88
2022-12-13T03:24:21.199Z,25.83
2022-12-13T03:26:52.422Z,21.60
2022-12-13T03:29:23.879Z,29.33
2022-12-13T03:31:53.286Z,22.45
2022-12-13T03:34:22.933Z,21.60
2022-12-13T03:36:53.734Z,24.23
2022-12-13T03:39:21.366Z,23.15
2022-12-13T03:41:50.333Z,21.73
2022-12-13T03:44:17.415Z,22.30
2022-12-13T03:46:47.425Z,24.85
2022-12-13T03:49:17.307Z,24.55
2022-12-13T03:51:45.587Z,23.80
2022-12-13T03:54:12.827Z,22.35
2022-12-13T03:56:40.053Z,25.83
2022-12-13T03:59:07.073Z,24.13
2022-12-13T04:01:36.587Z,25.42
2022-12-13T04:04:03.719Z,25.45
2022-12-13T04:06:33.452Z,23.27
2022-12-13T04:09:00.659Z,29.33
2022-12-13T04:11:46.442Z,23.30
2022-12-13T04:14:22.795Z,23.45
2022-12-13T04:16:53.601Z,24.07
2022-12-13T04:19:24.083Z,27.08
2022-12-13T04:21:54.716Z,25.55
2022-12-13T04:24:31.916Z,24.45
2022-12-13T04:27:02.283Z,22.50
2022-12-13T04:29:34.334Z,24.52
2022-12-13T04:32:04.137Z,20.25
2022-12-13T04:34:36.848Z,22.95
2022-12-13T04:37:05.808Z,23.92
2022-12-13T04:39:35.588Z,23.80
2022-12-13T04:42:03.481Z,22.92
2022-12-13T04:44:36.508Z,22.13
2022-12-13T04:47:04.997Z,25.58
2022-12-13T04:49:32.042Z,25.27
2022-12-13T04:52:05.422Z,21.63
2022-12-13T04:54:36.514Z,25.52
2022-12-13T04:57:07.363Z,21.98
2022-12-13T04:59:34.507Z,25.48
2022-12-13T05:02:01.888Z,26.15
2022-12-13T05:04:32.908Z,24.77
2022-12-13T05:07:02.368Z,25.23
2022-12-13T05:09:29.549Z,24.63
2022-12-13T05:12:01.583Z,29.55
2022-12-13T05:14:31.632Z,28.83
2022-12-13T05:17:01.837Z,29.73
2022-12-13T05:19:31.300Z,23.65
2022-12-13T05:22:02.908Z,24.25
2022-12-13T05:24:31.404Z,23.45
2022-12-13T05:26:59.400Z,27.65
2022-12-13T05:29:28.927Z,26.02
2022-12-13T05:31:56.306Z,28.70
2022-12-13T05:34:23.324Z,26.83
2022-12-13T05:36:51.008Z,26.92
2022-12-13T05:39:28.240Z,23.27
2022-12-13T05:42:02.049Z,22.70
2022-12-13T05:44:32.915Z,27.20
2022-12-13T05:47:02.375Z,26.42
2022-12-13T05:49:33.280Z,27.77
2022-12-13T05:52:00.601Z,28.08
2022-12-13T05:54:27.720Z,23.95
2022-12-13T05:56:55.233Z,21.65
2022-12-13T05:59:22.238Z,22.63
2022-12-13T06:01:49.665Z,26.80
2022-12-13T06:04:23.186Z,27.80
2022-12-13T06:06:52.238Z,24.33
2022-12-13T06:09:20.540Z,27.92
2022-12-13T06:11:48.976Z,26.75
2022-12-13T06:14:22.543Z,27.92
2022-12-13T06:16:52.404Z,30.88
2022-12-13T06:19:20.952Z,35.15
2022-12-13T06:21:48.706Z,30.75
2022-12-13T06:24:20.171Z,30.67
2022-12-13T06:26:48.079Z,29.92
2022-12-13T06:29:23.714Z,27.60
2022-12-13T06:32:02.207Z,31.75
2022-12-13T06:34:32.495Z,29.05
2022-12-13T06:37:00.696Z,27.08
2022-12-13T06:39:32.300Z,27.80
2022-12-13T06:42:03.389Z,26.10
2022-12-13T06:44:30.485Z,24.27
2022-12-13T06:47:11.659Z,23.35
2022-12-13T06:49:42.944Z,25.98
2022-12-13T06:52:12.851Z,27.45
2022-12-13T06:54:40.695Z,28.92
2022-12-13T06:57:08.168Z,29.88
2022-12-13T06:59:35.878Z,26.80
2022-12-13T07:02:04.530Z,28.65
2022-12-13T07:04:32.843Z,29.45
2022-12-13T07:07:00.981Z,26.58
2022-12-13T07:09:32.347Z,23.70
2022-12-13T07:12:00.460Z,23.55
2022-12-13T07:14:27.520Z,25.92
2022-12-13T07:17:01.382Z,27.48
2022-12-13T07:19:35.257Z,22.38
2022-12-13T07:22:09.686Z,26.73
2022-12-13T07:24:37.392Z,23.60
2022-12-13T07:27:05.157Z,31.40
2022-12-13T07:29:34.629Z,27.77
2022-12-13T07:32:02.386Z,31.90
2022-12-13T07:34:30.458Z,29.23
2022-12-13T07:36:58.169Z,26.42
2022-12-13T07:39:26.402Z,24.75
2022-12-13T07:41:57.363Z,28.88
2022-12-13T07:44:24.617Z,24.55
2022-12-13T07:46:52.660Z,24.52
2022-12-13T07:49:22.421Z,21.95
2022-12-13T07:51:49.768Z,26.45
2022-12-13T07:54:17.129Z,24.42
2022-12-13T07:56:44.669Z,32.08
2022-12-13T07:59:13.216Z,26.08
2022-12-13T08:01:40.509Z,29.63
2022-12-13T08:04:10.072Z,28.90
2022-12-13T08:06:39.598Z,30.85
2022-12-13T08:09:06.966Z,26.98
2022-12-13T08:11:34.651Z,24.63
2022-12-13T08:14:01.964Z,29.60
2022-12-13T08:16:30.577Z,28.83
2022-12-13T08:19:01.979Z,28.83
2022-12-13T08:21:57.149Z,29.15
2022-12-13T08:24:29.273Z,32.47
2022-12-13T08:27:02.162Z,35.22
2022-12-13T08:29:33.543Z,34.03
2022-12-13T08:32:08.374Z,27.17
2022-12-13T08:34:35.585Z,32.10
2022-12-13T08:37:04.341Z,27.30
2022-12-13T08:39:37.402Z,27.55
2022-12-13T08:42:18.771Z,27.65
2022-12-13T08:44:48.919Z,27.48
2022-12-13T08:47:23.082Z,26.65
2022-12-13T08:49:51.238Z,24.98
2022-12-13T08:52:19.443Z,25.38
2022-12-13T08:54:48.705Z,22.23
2022-12-13T08:57:15.958Z,22.13
2022-12-13T08:59:43.007Z,23.38
2022-12-13T09:02:13.910Z,25.05
2022-12-13T09:04:45.871Z,25.90
2022-12-13T09:07:13.672Z,27.25
2022-12-13T09:09:40.672Z,21.55
2022-12-13T09:12:10.280Z,28.90
2022-12-13T09:14:45.669Z,34.60
2022-12-13T09:17:24.819Z,29.73
2022-12-13T09:19:57.943Z,33.65
2022-12-13T09:22:34.025Z,32.83
2022-12-13T09:25:04.615Z,35.03
2022-12-13T09:27:39.832Z,38.35
2022-12-13T09:30:10.848Z,33.53
2022-12-13T09:32:38.176Z,37.88
2022-12-13T09:35:05.743Z,32.45
2022-12-13T09:37:33.144Z,33.45
2022-12-13T09:40:00.129Z,31.30
2022-12-13T09:43:08.329Z,26.35
2022-12-13T09:45:44.232Z,24.05
2022-12-13T09:48:22.779Z,22.77
2022-12-13T09:50:58.241Z,29.75
2022-12-13T09:53:40.608Z,26.50
2022-12-13T09:56:13.090Z,24.00
2022-12-13T09:58:40.555Z,23.10
2022-12-13T10:01:07.809Z,25.73
2022-12-13T10:03:35.190Z,21.77
2022-12-13T10:06:22.742Z,25.02
2022-12-13T10:08:59.352Z,21.48
2022-12-13T10:11:31.399Z,25.73
2022-12-13T10:14:09.705Z,22.40
2022-12-13T10:16:37.231Z,21.55
2022-12-13T10:19:28.915Z,27.00
2022-12-13T10:22:01.844Z,27.15
2022-12-13T10:24:56.190Z,20.65
2022-12-13T10:27:29.165Z,21.80
2022-12-13T10:30:08.029Z,21.95
2022-12-13T10:32:57.557Z,23.65
2022-12-13T10:35:38.027Z,23.73
2022-12-13T10:38:11.480Z,19.20
2022-12-13T10:40:48.876Z,21.95
2022-12-13T10:43:17.414Z,21.60
2022-12-13T10:45:58.960Z,21.92
2022-12-13T10:48:31.518Z,24.33
2022-12-13T10:51:15.557Z,26.35
2022-12-13T10:53:48.370Z,26.25
2022-12-13T10:56:22.889Z,21.77
2022-12-13T10:59:13.387Z,25.10
2022-12-13T11:01:44.789Z,23.20
2022-12-13T11:04:33.114Z,23.23
2022-12-13T11:07:33.270Z,19.60
2022-12-13T11:10:18.490Z,26.70
2022-12-13T11:12:50.116Z,21.23
2022-12-13T11:15:23.071Z,23.48
2022-12-13T11:17:55.812Z,24.20
2022-12-13T11:20:26.120Z,23.15
2022-12-13T11:23:24.035Z,22.58
2022-12-13T11:25:56.612Z,21.33
2022-12-13T11:28:53.398Z,20.38
2022-12-13T11:31:47.875Z,21.02
2022-12-13T11:34:24.119Z,23.30
2022-12-13T11:36:57.535Z,21.50
2022-12-13T11:39:32.417Z,19.48
2022-12-13T11:42:24.958Z,18.27
2022-12-13T11:45:07.435Z,19.23
2022-12-13T11:47:43.394Z,20.88
2022-12-13T11:50:41.145Z,20.48
2022-12-13T11:53:29.196Z,17.83
2022-12-13T11:56:05.932Z,15.68
2022-12-13T11:59:01.677Z,15.32
2022-12-13T12:01:32.791Z,17.17
2022-12-13T12:04:39.975Z,15.57
2022-12-13T12:07:35.942Z,14.73
2022-12-13T12:10:36.096Z,15.43
2022-12-13T12:13:12.913Z,15.68
2022-12-13T12:15:46.533Z,16.67
2022-12-13T12:18:16.530Z,16.98
2022-12-13T12:20:53.562Z,15.68
2022-12-13T12:23:48.372Z,13.45
2022-12-13T12:26:22.008Z,13.48
2022-12-13T12:29:28.805Z,14.07
2022-12-13T12:32:02.697Z,17.42
2022-12-13T12:34:53.186Z,13.98
2022-12-13T12:37:47.350Z,13.10
2022-12-13T12:41:15.615Z,10.43
2022-12-13T12:43:42.426Z,9.40
2022-12-13T12:47:17.773Z,9.95
2022-12-13T12:52:21.437Z,11.00
2022-12-13T12:55:16.217Z,8.93
2022-12-13T12:58:31.084Z,7.82
2022-12-13T13:01:01.156Z,10.48
2022-12-13T13:03:32.815Z,7.75
2022-12-13T13:06:04.742Z,10.48
2022-12-13T13:08:35.858Z,8.48
2022-12-13T13:11:06.039Z,12.90
2022-12-13T13:14:01.698Z,9.23
2022-12-13T13:16:35.169Z,10.52
2022-12-13T13:19:11.563Z,12.43
2022-12-13T13:21:43.022Z,8.30
2022-12-13T13:24:13.495Z,14.77
2022-12-13T13:26:51.123Z,12.35
2022-12-13T13:29:27.194Z,9.73
2022-12-13T13:32:01.878Z,11.45
2022-12-13T13:34:33.238Z,11.00
2022-12-13T13:37:02.207Z,11.80
2022-12-13T13:39:31.785Z,8.57
2022-12-13T13:42:09.631Z,11.77
2022-12-13T13:44:46.005Z,8.52
2022-12-13T13:47:21.146Z,7.97
2022-12-13T13:50:02.440Z,10.25
2022-12-13T13:52:51.369Z,12.48
2022-12-13T13:55:44.748Z,11.15
2022-12-13T13:58:33.069Z,11.52
2022-12-13T14:04:09.027Z,9.13
2022-12-13T14:06:45.371Z,10.77
2022-12-13T14:09:21.308Z,15.38
2022-12-13T14:12:07.390Z,13.27
2022-12-13T14:15:01.407Z,12.30
2022-12-13T14:17:56.863Z,12.45
2022-12-13T14:20:30.343Z,12.43
2022-12-13T14:23:36.146Z,11.82
2022-12-13T14:26:24.793Z,13.05
2022-12-13T14:29:00.459Z,12.18
2022-12-13T14:31:39.363Z,11.48
2022-12-13T14:34:08.332Z,10.23
2022-12-13T14:36:39.228Z,12.68
2022-12-13T14:39:24.492Z,14.40
2022-12-13T14:41:56.865Z,15.98
2022-12-13T14:44:36.391Z,12.75
2022-12-13T14:47:06.769Z,15.27
2022-12-13T14:49:38.405Z,16.08
2022-12-13T14:52:26.121Z,13.40
2022-12-13T14:55:06.914Z,19.48
2022-12-13T14:57:36.437Z,13.18
2022-12-13T15:00:40.210Z,16.65
2022-12-13T15:03:08.050Z,13.80
2022-12-13T15:05:47.153Z,49.90
2022-12-13T15:08:19.595Z,28.77
2022-12-13T15:10:48.889Z,15.90
2022-12-13T15:13:29.246Z,17.50
2022-12-13T15:16:10.287Z,21.73
2022-12-13T15:18:40.836Z,34.60
2022-12-13T15:21:23.389Z,17.90
2022-12-13T15:24:05.307Z,17.88
2022-12-13T15:26:35.553Z,17.02
2022-12-13T15:29:09.464Z,17.00
2022-12-13T15:34:28.244Z,20.15
2022-12-13T15:37:07.001Z,18.40
2022-12-13T15:39:48.251Z,16.38
2022-12-13T15:42:21.878Z,16.48
2022-12-13T15:44:56.091Z,21.10
2022-12-13T15:47:28.314Z,28.97
2022-12-13T15:50:01.131Z,21.92
2022-12-13T15:52:28.927Z,21.88
2022-12-13T15:54:59.749Z,21.58
2022-12-13T15:57:30.090Z,16.13
2022-12-13T16:00:30.910Z,18.77
2022-12-13T16:03:17.937Z,18.60
2022-12-13T16:05:52.093Z,18.40
2022-12-13T16:08:30.753Z,19.10
2022-12-13T16:10:58.419Z,20.27
2022-12-13T16:13:29.000Z,19.20
2022-12-13T16:16:27.240Z,18.35
2022-12-13T16:18:59.666Z,19.98
2022-12-13T16:21:28.079Z,16.67
2022-12-13T16:23:57.431Z,26.88
2022-12-13T16:26:29.595Z,23.95
2022-12-13T16:29:00.342Z,19.88
2022-12-13T16:31:35.925Z,21.98
2022-12-13T16:34:05.604Z,24.70
2022-12-13T16:36:33.183Z,25.23
2022-12-13T16:39:01.400Z,23.33
2022-12-13T16:41:28.617Z,25.92
2022-12-13T16:43:59.083Z,25.13
2022-12-13T16:47:11.690Z,22.90
2022-12-13T16:49:25.329Z,24.45
2022-12-13T16:51:53.462Z,28.38
2022-12-13T16:54:22.916Z,24.77
2022-12-13T16:56:51.808Z,25.25
2022-12-13T16:59:22.882Z,22.20
2022-12-13T17:01:53.899Z,21.83
2022-12-13T17:04:24.896Z,30.85
2022-12-13T17:06:55.071Z,29.20
2022-12-13T17:09:33.621Z,33.20
2022-12-13T17:12:01.261Z,32.03
2022-12-13T17:14:29.107Z,44.28
2022-12-13T17:16:57.270Z,46.15
2022-12-13T17:19:25.544Z,54.10
2022-12-13T17:21:56.358Z,37.58
2022-12-13T17:24:25.061Z,23.75
2022-12-13T17:26:57.341Z,32.78
2022-12-13T17:29:25.364Z,34.45
2022-12-13T17:31:54.975Z,33.95
2022-12-13T17:34:23.136Z,35.85
2022-12-13T17:36:52.826Z,46.30
2022-12-13T17:39:22.542Z,33.92
2022-12-13T17:41:55.668Z,34.35
2022-12-13T17:44:25.651Z,24.17
2022-12-13T17:46:55.528Z,29.23
2022-12-13T17:49:24.573Z,32.15
2022-12-13T17:51:54.666Z,29.10
2022-12-13T17:54:24.150Z,26.30
2022-12-13T17:56:52.863Z,29.00
2022-12-13T17:59:21.959Z,32.03
2022-12-13T18:01:49.943Z,27.45
2022-12-13T18:04:18.348Z,26.35
2022-12-13T18:06:47.341Z,27.95
2022-12-13T18:09:15.695Z,27.90
2022-12-13T18:11:44.949Z,25.77
2022-12-13T18:14:13.104Z,31.77
2022-12-13T18:16:40.897Z,30.55
2022-12-13T18:19:12.058Z,28.77
2022-12-13T18:21:40.047Z,30.80
2022-12-13T18:24:08.599Z,27.55
2022-12-13T18:26:37.529Z,29.35
2022-12-13T18:29:06.088Z,33.00
2022-12-13T18:31:34.336Z,28.08
2022-12-13T18:34:02.842Z,30.20
2022-12-13T18:36:31.596Z,31.40
2022-12-13T18:39:00.193Z,29.33
2022-12-13T18:41:30.085Z,27.15
2022-12-13T18:44:00.768Z,35.22
2022-12-13T18:46:31.385Z,30.63
2022-12-13T18:48:59.389Z,32.38
2022-12-13T18:51:27.965Z,30.13
2022-12-13T18:53:58.556Z,34.55
2022-12-13T18:56:31.171Z,31.13
2022-12-13T18:59:01.078Z,30.08
2022-12-13T19:01:28.854Z,30.02
2022-12-13T19:03:57.057Z,30.88
2022-12-13T19:06:27.874Z,26.13
2022-12-13T19:09:00.267Z,31.90
2022-12-13T19:11:29.740Z,39.70
2022-12-13T19:14:01.235Z,36.03
2022-12-13T19:16:29.886Z,36.38
2022-12-13T19:18:59.673Z,33.60
2022-12-13T19:21:29.869Z,33.88
2022-12-13T19:23:59.199Z,38.22
2022-12-13T19:26:30.253Z,33.58
2022-12-13T19:28:59.751Z,31.83
2022-12-13T19:31:32.025Z,33.80
2022-12-13T19:34:04.452Z,32.05
2022-12-13T19:36:34.396Z,31.77
2022-12-13T19:39:03.897Z,36.20
2022-12-13T19:41:35.559Z,30.10
2022-12-13T19:44:07.009Z,36.60
2022-12-13T19:46:37.534Z,37.00
2022-12-13T19:49:07.057Z,40.15
2022-12-13T19:51:39.891Z,40.67
2022-12-13T19:54:13.704Z,42.83
2022-12-13T19:56:44.949Z,42.42
2022-12-13T19:59:16.247Z,46.15
2022-12-13T20:01:48.039Z,45.20
2022-12-13T20:04:17.363Z,44.80
2022-12-13T20:06:45.395Z,47.30
2022-12-13T20:09:14.799Z,44.30
2022-12-13T20:11:43.496Z,36.80
2022-12-13T20:14:14.075Z,40.85
2022-12-13T20:16:44.298Z,42.85
2022-12-13T20:19:13.728Z,41.95
2022-12-13T20:21:42.779Z,37.40
2022-12-13T20:24:12.882Z,36.22
2022-12-13T20:26:41.696Z,42.90
2022-12-13T20:29:14.092Z,37.05
2022-12-13T20:31:42.835Z,36.50
2022-12-13T20:34:18.578Z,28.15
2022-12-13T20:36:47.543Z,35.75
2022-12-13T20:39:16.796Z,35.00
2022-12-13T20:41:47.231Z,37.72
2022-12-13T20:44:20.329Z,35.38
2022-12-13T20:46:53.236Z,36.47
2022-12-13T20:49:22.865Z,34.08
2022-12-13T20:51:54.621Z,36.10
2022-12-13T20:54:23.599Z,36.83
2022-12-13T20:56:52.623Z,37.35
2022-12-13T20:59:22.137Z,38.25
2022-12-13T21:01:50.241Z,40.67
2022-12-13T21:04:18.958Z,38.38
2022-12-13T21:06:47.026Z,38.50
2022-12-13T21:09:19.175Z,39.15
2022-12-13T21:11:50.383Z,41.05
2022-12-13T21:14:23.413Z,42.30
2022-12-13T21:16:56.638Z,37.55
2022-12-13T21:19:39.384Z,36.95
2022-12-13T21:22:07.643Z,35.55
2022-12-13T21:24:35.711Z,38.75
2022-12-13T21:27:03.452Z,33.47
2022-12-13T21:29:30.854Z,33.30
2022-12-13T21:31:57.953Z,33.92
2022-12-13T21:34:25.924Z,34.15
2022-12-13T21:36:53.491Z,36.47
2022-12-13T21:39:29.642Z,35.97
2022-12-13T21:41:57.926Z,33.40
2022-12-13T21:44:25.230Z,33.20
2022-12-13T21:47:11.874Z,37.28
2022-12-13T21:49:39.763Z,38.95
2022-12-13T21:52:06.929Z,36.45
2022-12-13T21:54:34.383Z,34.05
2022-12-13T21:57:22.159Z,35.17
2022-12-13T21:59:49.423Z,36.95
2022-12-13T22:02:20.415Z,33.05
2022-12-13T22:04:50.005Z,35.65
2022-12-13T22:07:24.592Z,35.00
2022-12-13T22:09:53.321Z,37.72
2022-12-13T22:12:26.729Z,34.92
2022-12-13T22:14:54.244Z,40.30
2022-12-13T22:17:31.227Z,36.08
2022-12-13T22:20:02.583Z,39.15
2022-12-13T22:22:31.195Z,32.22
2022-12-13T22:25:01.654Z,31.88
2022-12-13T22:27:28.695Z,34.28
2022-12-13T22:29:57.645Z,37.10
2022-12-13T22:32:27.111Z,31.83
2022-12-13T22:34:54.784Z,33.38
2022-12-13T22:37:22.484Z,37.33
2022-12-13T22:39:50.213Z,33.00
2022-12-13T22:42:17.262Z,35.28
2022-12-13T22:44:45.020Z,34.00
2022-12-13T22:47:12.065Z,31.98
2022-12-13T22:49:40.125Z,34.53
2022-12-13T22:52:08.872Z,33.83
2022-12-13T22:54:39.153Z,34.13
2022-12-13T22:57:07.058Z,36.25
2022-12-13T22:59:41.683Z,37.35
2022-12-13T23:02:10.127Z,22.83
2022-12-13T23:04:41.108Z,33.42
2022-12-13T23:07:08.250Z,35.33
2022-12-13T23:09:35.711Z,32.30
2022-12-13T23:12:23.963Z,33.97
2022-12-13T23:14:55.101Z,35.00
2022-12-13T23:17:22.634Z,35.58
2022-12-13T23:19:53.387Z,32.35
2022-12-13T23:22:25.899Z,31.40
2022-12-13T23:24:53.811Z,36.97
2022-12-13T23:27:23.088Z,34.90
2022-12-13T23:29:50.801Z,33.15
2022-12-13T23:32:18.772Z,34.03
2022-12-13T23:34:46.212Z,30.77
2022-12-13T23:37:13.831Z,29.90
2022-12-13T23:39:41.802Z,33.13
2022-12-13T23:42:08.895Z,32.10
2022-12-13T23:44:38.540Z,31.73
2022-12-13T23:47:05.628Z,36.75
2022-12-13T23:49:33.053Z,36.95
2022-12-13T23:52:00.917Z,33.88
2022-12-13T23:54:28.326Z,36.97
2022-12-13T23:56:55.438Z,31.38
2022-12-13T23:59:25.909Z,33.33
